sensor_id;sensor_type;location;lat;lon;timestamp;pressure;altitude;pressure_sealevel;temperature;humidity
36630;BME280;36256;42.154;23.002;2022-12-16T00:01:11;97098.06;;;8.15;100.00
36630;BME280;36256;42.154;23.002;2022-12-16T00:03:39;97096.16;;;8.12;100.00
36630;BME280;36256;42.154;23.002;2022-12-16T00:06:07;97089.88;;;8.08;100.00
36630;BME280;36256;42.154;23.002;2022-12-16T00:08:36;97081.16;;;8.06;100.00
36630;BME280;36256;42.154;23.002;2022-12-16T00:11:04;97083.41;;;8.11;100.00
36630;BME280;36256;42.154;23.002;2022-12-16T00:13:31;97087.31;;;8.13;100.00
36630;BME280;36256;42.154;23.002;2022-12-16T00:16:05;97076.84;;;8.17;100.00
36630;BME280;36256;42.154;23.002;2022-12-16T00:18:34;97075.47;;;8.22;100.00
36630;BME280;36256;42.154;23.002;2022-12-16T00:21:01;97081.41;;;8.24;100.00
36630;BME280;36256;42.154;23.002;2022-12-16T00:23:28;97078.91;;;8.29;100.00
36630;BME280;36256;42.154;23.002;2022-12-16T00:25:55;97070.97;;;8.28;100.00
36630;BME280;36256;42.154;23.002;2022-12-16T00:28:21;97089.41;;;8.25;100.00
36630;BME280;36256;42.154;23.002;2022-12-16T00:30:53;97087.91;;;8.21;100.00
36630;BME280;36256;42.154;23.002;2022-12-16T00:33:22;97083.97;;;8.18;100.00
36630;BME280;36256;42.154;23.002;2022-12-16T00:35:49;97085.22;;;8.17;100.00
36630;BME280;36256;42.154;23.002;2022-12-16T00:38:17;97074.34;;;8.07;100.00
36630;BME280;36256;42.154;23.002;2022-12-16T00:40:44;97084.81;;;8.03;100.00
36630;BME280;36256;42.154;23.002;2022-12-16T00:43:11;97082.25;;;7.96;100.00
36630;BME280;36256;42.154;23.002;2022-12-16T00:45:37;97085.84;;;7.96;100.00
36630;BME280;36256;42.154;23.002;2022-12-16T00:48:05;97082.94;;;8.00;100.00
36630;BME280;36256;42.154;23.002;2022-12-16T00:50:32;97083.81;;;7.97;100.00
36630;BME280;36256;42.154;23.002;2022-12-16T00:52:59;97087.72;;;7.99;100.00
36630;BME280;36256;42.154;23.002;2022-12-16T00:55:25;97082.59;;;7.98;100.00
36630;BME280;36256;42.154;23.002;2022-12-16T00:57:52;97075.97;;;7.91;100.00
36630;BME280;36256;42.154;23.002;2022-12-16T01:00:20;97069.50;;;7.94;100.00
36630;BME280;36256;42.154;23.002;2022-12-16T01:02:49;97066.16;;;8.00;100.00
36630;BME280;36256;42.154;23.002;2022-12-16T01:05:22;97057.22;;;8.05;100.00
36630;BME280;36256;42.154;23.002;2022-12-16T01:07:54;97055.91;;;8.09;100.00
36630;BME280;36256;42.154;23.002;2022-12-16T01:10:23;97054.13;;;8.15;100.00
36630;BME280;36256;42.154;23.002;2022-12-16T01:12:50;97045.06;;;8.11;100.00
36630;BME280;36256;42.154;23.002;2022-12-16T01:15:17;97052.34;;;8.09;100.00
36630;BME280;36256;42.154;23.002;2022-12-16T01:17:44;97039.59;;;8.08;100.00
36630;BME280;36256;42.154;23.002;2022-12-16T01:20:11;97040.25;;;8.12;100.00
36630;BME280;36256;42.154;23.002;2022-12-16T01:22:39;97036.94;;;8.17;100.00
36630;BME280;36256;42.154;23.002;2022-12-16T01:25:06;97033.34;;;8.16;100.00
36630;BME280;36256;42.154;23.002;2022-12-16T01:27:33;97023.50;;;8.12;100.00
36630;BME280;36256;42.154;23.002;2022-12-16T01:30:00;97041.72;;;8.16;100.00
36630;BME280;36256;42.154;23.002;2022-12-16T01:32:26;97038.13;;;8.16;100.00
36630;BME280;36256;42.154;23.002;2022-12-16T01:34:53;97023.75;;;8.17;100.00
36630;BME280;36256;42.154;23.002;2022-12-16T01:37:22;97020.50;;;8.19;100.00
36630;BME280;36256;42.154;23.002;2022-12-16T01:39:49;97016.13;;;8.18;100.00
36630;BME280;36256;42.154;23.002;2022-12-16T01:42:18;97010.44;;;8.21;100.00
36630;BME280;36256;42.154;23.002;2022-12-16T01:44:47;97003.38;;;8.17;100.00
36630;BME280;36256;42.154;23.002;2022-12-16T01:47:16;97000.59;;;8.17;100.00
36630;BME280;36256;42.154;23.002;2022-12-16T01:49:58;97003.25;;;8.08;100.00
36630;BME280;36256;42.154;23.002;2022-12-16T01:52:30;96999.25;;;8.09;100.00
36630;BME280;36256;42.154;23.002;2022-12-16T01:55:07;97006.72;;;8.12;100.00
36630;BME280;36256;42.154;23.002;2022-12-16T01:57:43;96998.69;;;8.14;100.00
36630;BME280;36256;42.154;23.002;2022-12-16T02:00:12;96992.41;;;8.10;100.00
36630;BME280;36256;42.154;23.002;2022-12-16T02:02:41;96997.22;;;8.09;100.00
36630;BME280;36256;42.154;23.002;2022-12-16T02:05:09;97000.56;;;8.04;100.00
36630;BME280;36256;42.154;23.002;2022-12-16T02:10:55;97004.22;;;7.88;100.00
36630;BME280;36256;42.154;23.002;2022-12-16T02:16:24;97005.66;;;7.80;100.00
36630;BME280;36256;42.154;23.002;2022-12-16T02:19:01;97004.81;;;7.67;100.00
36630;BME280;36256;42.154;23.002;2022-12-16T02:30:04;96992.72;;;7.45;100.00
36630;BME280;36256;42.154;23.002;2022-12-16T02:33:00;96999.34;;;7.35;100.00
36630;BME280;36256;42.154;23.002;2022-12-16T02:36:11;97003.91;;;7.29;100.00
36630;BME280;36256;42.154;23.002;2022-12-16T02:38:48;97001.38;;;7.19;100.00
36630;BME280;36256;42.154;23.002;2022-12-16T02:44:05;96989.88;;;7.33;100.00
36630;BME280;36256;42.154;23.002;2022-12-16T02:46:41;96989.94;;;7.29;100.00
36630;BME280;36256;42.154;23.002;2022-12-16T02:51:38;96999.16;;;7.42;100.00
36630;BME280;36256;42.154;23.002;2022-12-16T02:54:08;97001.53;;;7.56;100.00
36630;BME280;36256;42.154;23.002;2022-12-16T02:59:31;97002.47;;;8.20;100.00
36630;BME280;36256;42.154;23.002;2022-12-16T03:02:11;96996.84;;;8.36;100.00
36630;BME280;36256;42.154;23.002;2022-12-16T03:04:46;96991.47;;;8.54;100.00
36630;BME280;36256;42.154;23.002;2022-12-16T03:07:17;96982.59;;;8.68;100.00
36630;BME280;36256;42.154;23.002;2022-12-16T03:09:47;96988.41;;;8.86;100.00
36630;BME280;36256;42.154;23.002;2022-12-16T03:12:17;96989.97;;;8.87;100.00
36630;BME280;36256;42.154;23.002;2022-12-16T03:14:48;97004.72;;;9.00;100.00
36630;BME280;36256;42.154;23.002;2022-12-16T03:17:17;97007.50;;;9.13;100.00
36630;BME280;36256;42.154;23.002;2022-12-16T03:19:51;96998.69;;;9.36;100.00
36630;BME280;36256;42.154;23.002;2022-12-16T03:22:24;96998.13;;;9.41;100.00
36630;BME280;36256;42.154;23.002;2022-12-16T03:24:53;96999.38;;;9.62;100.00
36630;BME280;36256;42.154;23.002;2022-12-16T03:27:24;96993.59;;;9.78;100.00
36630;BME280;36256;42.154;23.002;2022-12-16T03:32:42;96991.88;;;10.54;100.00
36630;BME280;36256;42.154;23.002;2022-12-16T03:37:43;96985.91;;;10.92;100.00
36630;BME280;36256;42.154;23.002;2022-12-16T03:40:12;96985.16;;;11.00;100.00
36630;BME280;36256;42.154;23.002;2022-12-16T03:42:41;96981.13;;;11.01;100.00
36630;BME280;36256;42.154;23.002;2022-12-16T03:45:13;96994.50;;;10.88;100.00
36630;BME280;36256;42.154;23.002;2022-12-16T03:47:40;96995.44;;;10.85;100.00
36630;BME280;36256;42.154;23.002;2022-12-16T03:50:07;96998.53;;;10.78;100.00
36630;BME280;36256;42.154;23.002;2022-12-16T03:52:35;97008.91;;;10.69;100.00
36630;BME280;36256;42.154;23.002;2022-12-16T03:55:01;97008.91;;;10.69;100.00
36630;BME280;36256;42.154;23.002;2022-12-16T03:57:28;97001.66;;;10.80;100.00
36630;BME280;36256;42.154;23.002;2022-12-16T03:59:54;97010.13;;;10.98;100.00
36630;BME280;36256;42.154;23.002;2022-12-16T04:02:21;97002.97;;;11.16;100.00
36630;BME280;36256;42.154;23.002;2022-12-16T04:04:48;97006.09;;;11.09;100.00
36630;BME280;36256;42.154;23.002;2022-12-16T04:07:14;96993.88;;;10.84;100.00
36630;BME280;36256;42.154;23.002;2022-12-16T04:09:47;96997.09;;;10.74;100.00
36630;BME280;36256;42.154;23.002;2022-12-16T04:12:14;97000.97;;;10.67;100.00
36630;BME280;36256;42.154;23.002;2022-12-16T04:14:59;96997.69;;;11.09;100.00
36630;BME280;36256;42.154;23.002;2022-12-16T04:17:44;97002.09;;;11.46;100.00
36630;BME280;36256;42.154;23.002;2022-12-16T04:20:44;97006.22;;;11.72;100.00
36630;BME280;36256;42.154;23.002;2022-12-16T04:23:30;97003.84;;;11.89;100.00
36630;BME280;36256;42.154;23.002;2022-12-16T04:26:17;97001.81;;;11.98;100.00
36630;BME280;36256;42.154;23.002;2022-12-16T04:28:44;97014.28;;;12.06;100.00
36630;BME280;36256;42.154;23.002;2022-12-16T04:31:10;97033.03;;;12.00;100.00
36630;BME280;36256;42.154;23.002;2022-12-16T04:33:37;97029.59;;;12.05;100.00
36630;BME280;36256;42.154;23.002;2022-12-16T04:36:22;97040.88;;;11.78;100.00
36630;BME280;36256;42.154;23.002;2022-12-16T04:39:07;97043.00;;;11.56;100.00
36630;BME280;36256;42.154;23.002;2022-12-16T04:41:53;97041.72;;;11.39;100.00
36630;BME280;36256;42.154;23.002;2022-12-16T04:44:39;97052.00;;;11.33;100.00
36630;BME280;36256;42.154;23.002;2022-12-16T04:47:24;97048.53;;;11.20;100.00
36630;BME280;36256;42.154;23.002;2022-12-16T04:50:09;97051.63;;;11.03;100.00
36630;BME280;36256;42.154;23.002;2022-12-16T04:52:54;97050.94;;;10.90;100.00
36630;BME280;36256;42.154;23.002;2022-12-16T04:55:39;97047.16;;;10.75;100.00
36630;BME280;36256;42.154;23.002;2022-12-16T04:58:29;97045.59;;;10.74;100.00
36630;BME280;36256;42.154;23.002;2022-12-16T05:01:14;97042.16;;;10.70;100.00
36630;BME280;36256;42.154;23.002;2022-12-16T05:03:59;97033.25;;;10.72;100.00
36630;BME280;36256;42.154;23.002;2022-12-16T05:06:44;97032.78;;;10.73;100.00
36630;BME280;36256;42.154;23.002;2022-12-16T05:09:29;97035.75;;;10.70;100.00
36630;BME280;36256;42.154;23.002;2022-12-16T05:12:14;97037.91;;;10.66;100.00
36630;BME280;36256;42.154;23.002;2022-12-16T05:14:59;97028.22;;;10.97;100.00
36630;BME280;36256;42.154;23.002;2022-12-16T05:17:44;97027.28;;;11.00;100.00
36630;BME280;36256;42.154;23.002;2022-12-16T05:20:29;97018.81;;;10.82;100.00
36630;BME280;36256;42.154;23.002;2022-12-16T05:23:14;97031.53;;;10.65;100.00
36630;BME280;36256;42.154;23.002;2022-12-16T05:25:59;97038.59;;;10.48;100.00
36630;BME280;36256;42.154;23.002;2022-12-16T05:28:45;97043.25;;;10.42;100.00
36630;BME280;36256;42.154;23.002;2022-12-16T05:31:30;97060.88;;;10.43;100.00
36630;BME280;36256;42.154;23.002;2022-12-16T05:34:15;97077.09;;;10.48;100.00
36630;BME280;36256;42.154;23.002;2022-12-16T05:37:00;97084.69;;;10.38;100.00
36630;BME280;36256;42.154;23.002;2022-12-16T05:39:44;97086.75;;;10.47;100.00
36630;BME280;36256;42.154;23.002;2022-12-16T05:42:30;97079.16;;;10.56;100.00
36630;BME280;36256;42.154;23.002;2022-12-16T05:45:14;97067.63;;;10.54;100.00
36630;BME280;36256;42.154;23.002;2022-12-16T05:48:00;97078.53;;;10.52;100.00
36630;BME280;36256;42.154;23.002;2022-12-16T05:50:44;97082.19;;;10.40;100.00
36630;BME280;36256;42.154;23.002;2022-12-16T05:53:29;97092.69;;;10.49;100.00
36630;BME280;36256;42.154;23.002;2022-12-16T05:56:14;97096.53;;;10.42;100.00
36630;BME280;36256;42.154;23.002;2022-12-16T05:58:59;97093.56;;;10.37;100.00
36630;BME280;36256;42.154;23.002;2022-12-16T06:01:44;97091.97;;;10.14;100.00
36630;BME280;36256;42.154;23.002;2022-12-16T06:04:29;97100.22;;;9.96;100.00
36630;BME280;36256;42.154;23.002;2022-12-16T06:07:15;97095.03;;;9.73;100.00
36630;BME280;36256;42.154;23.002;2022-12-16T06:09:59;97107.81;;;9.74;100.00
36630;BME280;36256;42.154;23.002;2022-12-16T06:12:46;97105.59;;;9.69;100.00
36630;BME280;36256;42.154;23.002;2022-12-16T06:15:31;97108.50;;;9.78;100.00
36630;BME280;36256;42.154;23.002;2022-12-16T06:18:16;97117.22;;;9.80;100.00
36630;BME280;36256;42.154;23.002;2022-12-16T06:21:01;97134.69;;;9.84;100.00
36630;BME280;36256;42.154;23.002;2022-12-16T06:23:46;97141.84;;;9.85;100.00
36630;BME280;36256;42.154;23.002;2022-12-16T06:26:31;97149.09;;;9.95;100.00
36630;BME280;36256;42.154;23.002;2022-12-16T06:29:16;97152.22;;;10.09;100.00
36630;BME280;36256;42.154;23.002;2022-12-16T06:32:01;97151.84;;;10.20;100.00
36630;BME280;36256;42.154;23.002;2022-12-16T06:34:46;97166.59;;;10.33;100.00
36630;BME280;36256;42.154;23.002;2022-12-16T06:37:46;97153.88;;;10.41;100.00
36630;BME280;36256;42.154;23.002;2022-12-16T06:40:31;97165.16;;;10.50;100.00
36630;BME280;36256;42.154;23.002;2022-12-16T06:43:20;97166.41;;;10.49;100.00
36630;BME280;36256;42.154;23.002;2022-12-16T06:46:05;97162.44;;;10.59;100.00
36630;BME280;36256;42.154;23.002;2022-12-16T06:48:50;97166.06;;;10.69;100.00
36630;BME280;36256;42.154;23.002;2022-12-16T06:51:36;97160.97;;;10.76;100.00
36630;BME280;36256;42.154;23.002;2022-12-16T06:54:21;97166.59;;;10.76;100.00
36630;BME280;36256;42.154;23.002;2022-12-16T06:57:06;97153.69;;;10.79;100.00
36630;BME280;36256;42.154;23.002;2022-12-16T06:59:51;97153.38;;;10.86;100.00
36630;BME280;36256;42.154;23.002;2022-12-16T07:02:36;97151.69;;;10.88;100.00
36630;BME280;36256;42.154;23.002;2022-12-16T07:05:21;97147.66;;;10.89;100.00
36630;BME280;36256;42.154;23.002;2022-12-16T07:08:06;97143.31;;;10.97;100.00
36630;BME280;36256;42.154;23.002;2022-12-16T07:10:51;97127.28;;;10.98;100.00
36630;BME280;36256;42.154;23.002;2022-12-16T07:13:43;97124.94;;;11.05;100.00
36630;BME280;36256;42.154;23.002;2022-12-16T07:16:28;97135.59;;;11.11;100.00
36630;BME280;36256;42.154;23.002;2022-12-16T07:19:15;97144.66;;;11.24;100.00
36630;BME280;36256;42.154;23.002;2022-12-16T07:22:00;97141.44;;;11.34;100.00
36630;BME280;36256;42.154;23.002;2022-12-16T07:24:45;97144.91;;;11.47;100.00
36630;BME280;36256;42.154;23.002;2022-12-16T07:27:30;97132.00;;;11.59;100.00
36630;BME280;36256;42.154;23.002;2022-12-16T07:30:15;97128.16;;;11.74;100.00
36630;BME280;36256;42.154;23.002;2022-12-16T07:33:00;97142.69;;;11.91;100.00
36630;BME280;36256;42.154;23.002;2022-12-16T07:35:45;97131.47;;;12.09;100.00
36630;BME280;36256;42.154;23.002;2022-12-16T07:38:30;97133.03;;;12.28;100.00
36630;BME280;36256;42.154;23.002;2022-12-16T07:41:15;97137.09;;;12.45;100.00
36630;BME280;36256;42.154;23.002;2022-12-16T07:44:00;97139.25;;;12.59;100.00
36630;BME280;36256;42.154;23.002;2022-12-16T07:46:45;97141.75;;;12.67;100.00
36630;BME280;36256;42.154;23.002;2022-12-16T07:49:30;97136.09;;;12.76;100.00
36630;BME280;36256;42.154;23.002;2022-12-16T07:52:15;97139.22;;;12.87;100.00
36630;BME280;36256;42.154;23.002;2022-12-16T07:55:00;97138.22;;;12.99;100.00
36630;BME280;36256;42.154;23.002;2022-12-16T07:57:49;97129.63;;;13.02;100.00
36630;BME280;36256;42.154;23.002;2022-12-16T08:00:34;97135.75;;;13.01;100.00
36630;BME280;36256;42.154;23.002;2022-12-16T08:03:22;97147.28;;;13.12;100.00
36630;BME280;36256;42.154;23.002;2022-12-16T08:06:07;97148.84;;;13.22;100.00
36630;BME280;36256;42.154;23.002;2022-12-16T08:08:52;97138.44;;;13.37;100.00
36630;BME280;36256;42.154;23.002;2022-12-16T08:11:37;97146.84;;;13.46;100.00
36630;BME280;36256;42.154;23.002;2022-12-16T08:14:22;97142.41;;;13.54;100.00
36630;BME280;36256;42.154;23.002;2022-12-16T08:17:07;97150.84;;;13.63;100.00
36630;BME280;36256;42.154;23.002;2022-12-16T08:19:52;97146.78;;;13.64;100.00
36630;BME280;36256;42.154;23.002;2022-12-16T08:22:39;97152.53;;;13.70;100.00
36630;BME280;36256;42.154;23.002;2022-12-16T08:25:24;97145.88;;;13.82;100.00
36630;BME280;36256;42.154;23.002;2022-12-16T08:28:09;97154.47;;;13.87;100.00
36630;BME280;36256;42.154;23.002;2022-12-16T08:30:54;97165.97;;;13.98;100.00
36630;BME280;36256;42.154;23.002;2022-12-16T08:33:40;97157.13;;;14.14;100.00
36630;BME280;36256;42.154;23.002;2022-12-16T08:36:25;97155.44;;;14.32;100.00
36630;BME280;36256;42.154;23.002;2022-12-16T08:39:10;97143.91;;;14.44;100.00
36630;BME280;36256;42.154;23.002;2022-12-16T08:41:54;97146.44;;;14.57;100.00
36630;BME280;36256;42.154;23.002;2022-12-16T08:44:40;97135.03;;;14.66;100.00
36630;BME280;36256;42.154;23.002;2022-12-16T08:47:24;97134.09;;;14.83;100.00
36630;BME280;36256;42.154;23.002;2022-12-16T08:50:09;97124.75;;;14.92;100.00
36630;BME280;36256;42.154;23.002;2022-12-16T08:52:55;97125.53;;;15.07;100.00
36630;BME280;36256;42.154;23.002;2022-12-16T08:55:40;97112.44;;;15.39;100.00
36630;BME280;36256;42.154;23.002;2022-12-16T08:58:25;97122.38;;;16.44;100.00
36630;BME280;36256;42.154;23.002;2022-12-16T09:01:10;97123.19;;;18.37;88.62
36630;BME280;36256;42.154;23.002;2022-12-16T09:03:55;97108.13;;;19.73;78.99
36630;BME280;36256;42.154;23.002;2022-12-16T09:06:40;97099.47;;;20.17;74.68
36630;BME280;36256;42.154;23.002;2022-12-16T09:09:25;97079.84;;;20.03;72.95
36630;BME280;36256;42.154;23.002;2022-12-16T09:12:10;97086.34;;;18.59;79.66
36630;BME280;36256;42.154;23.002;2022-12-16T09:14:59;97097.97;;;18.08;86.27
36630;BME280;36256;42.154;23.002;2022-12-16T09:17:44;97103.44;;;18.12;87.74
36630;BME280;36256;42.154;23.002;2022-12-16T09:20:29;97089.69;;;17.99;85.56
36630;BME280;36256;42.154;23.002;2022-12-16T09:23:14;97078.22;;;17.77;87.53
36630;BME280;36256;42.154;23.002;2022-12-16T09:26:00;97072.25;;;17.69;88.10
36630;BME280;36256;42.154;23.002;2022-12-16T09:28:45;97068.19;;;17.45;88.89
36630;BME280;36256;42.154;23.002;2022-12-16T09:31:30;97081.09;;;17.46;90.28
36630;BME280;36256;42.154;23.002;2022-12-16T09:34:15;97056.16;;;17.55;89.21
36630;BME280;36256;42.154;23.002;2022-12-16T09:37:00;97052.59;;;17.60;86.95
36630;BME280;36256;42.154;23.002;2022-12-16T09:39:45;97049.38;;;17.89;86.35
36630;BME280;36256;42.154;23.002;2022-12-16T09:42:57;97057.94;;;17.95;85.25
36630;BME280;36256;42.154;23.002;2022-12-16T09:52:02;97048.38;;;17.98;84.08
36630;BME280;36256;42.154;23.002;2022-12-16T09:54:50;97047.13;;;18.10;83.16
36630;BME280;36256;42.154;23.002;2022-12-16T09:57:35;97049.50;;;18.17;80.54
36630;BME280;36256;42.154;23.002;2022-12-16T10:00:24;97044.88;;;18.25;82.56
36630;BME280;36256;42.154;23.002;2022-12-16T10:03:15;97057.28;;;18.33;81.62
36630;BME280;36256;42.154;23.002;2022-12-16T10:06:17;97039.41;;;18.11;81.71
36630;BME280;36256;42.154;23.002;2022-12-16T10:09:26;97023.41;;;18.19;80.65
36630;BME280;36256;42.154;23.002;2022-12-16T10:15:18;97035.28;;;18.12;83.16
36630;BME280;36256;42.154;23.002;2022-12-16T10:18:18;97028.78;;;18.00;81.59
36630;BME280;36256;42.154;23.002;2022-12-16T10:21:14;97026.22;;;18.02;81.98
36630;BME280;36256;42.154;23.002;2022-12-16T10:27:16;97011.75;;;18.00;80.25
36630;BME280;36256;42.154;23.002;2022-12-16T10:30:12;96996.28;;;18.12;80.20
36630;BME280;36256;42.154;23.002;2022-12-16T10:32:58;96997.38;;;18.20;78.88
36630;BME280;36256;42.154;23.002;2022-12-16T10:35:52;96988.06;;;18.25;79.91
36630;BME280;36256;42.154;23.002;2022-12-16T10:38:53;96985.25;;;18.31;78.09
36630;BME280;36256;42.154;23.002;2022-12-16T10:41:42;96998.75;;;18.47;77.42
36630;BME280;36256;42.154;23.002;2022-12-16T10:47:38;97001.03;;;18.37;77.35
36630;BME280;36256;42.154;23.002;2022-12-16T10:50:24;97000.78;;;18.41;76.36
36630;BME280;36256;42.154;23.002;2022-12-16T10:53:15;97013.47;;;18.45;76.07
36630;BME280;36256;42.154;23.002;2022-12-16T10:59:02;96990.19;;;18.41;74.78
36630;BME280;36256;42.154;23.002;2022-12-16T11:04:43;96999.00;;;18.54;75.04
36630;BME280;36256;42.154;23.002;2022-12-16T11:07:30;96989.69;;;18.48;74.78
36630;BME280;36256;42.154;23.002;2022-12-16T11:10:31;96986.53;;;18.35;75.94
36630;BME280;36256;42.154;23.002;2022-12-16T11:13:20;96989.94;;;18.39;75.56
36630;BME280;36256;42.154;23.002;2022-12-16T11:18:56;97004.97;;;18.62;75.25
36630;BME280;36256;42.154;23.002;2022-12-16T11:21:41;96989.97;;;18.67;74.51
36630;BME280;36256;42.154;23.002;2022-12-16T11:24:27;96985.06;;;18.78;72.85
36630;BME280;36256;42.154;23.002;2022-12-16T11:27:24;96987.91;;;18.84;72.81
36630;BME280;36256;42.154;23.002;2022-12-16T11:32:59;96994.09;;;18.71;72.87
36630;BME280;36256;42.154;23.002;2022-12-16T11:36:04;96983.78;;;18.68;72.08
36630;BME280;36256;42.154;23.002;2022-12-16T11:38:52;96995.91;;;18.63;71.95
36630;BME280;36256;42.154;23.002;2022-12-16T11:41:40;96992.03;;;18.77;71.38
36630;BME280;36256;42.154;23.002;2022-12-16T11:44:33;97004.69;;;18.54;71.60
36630;BME280;36256;42.154;23.002;2022-12-16T11:50:41;97001.09;;;18.70;72.47
36630;BME280;36256;42.154;23.002;2022-12-16T11:53:37;96987.16;;;18.72;71.23
36630;BME280;36256;42.154;23.002;2022-12-16T11:56:41;96993.63;;;18.73;72.14
36630;BME280;36256;42.154;23.002;2022-12-16T11:59:55;97005.22;;;18.69;70.58
36630;BME280;36256;42.154;23.002;2022-12-16T12:03:05;96986.88;;;18.65;71.67
36630;BME280;36256;42.154;23.002;2022-12-16T12:09:06;96964.63;;;18.41;72.96
36630;BME280;36256;42.154;23.002;2022-12-16T12:15:20;96964.09;;;18.43;73.33
36630;BME280;36256;42.154;23.002;2022-12-16T12:30:13;96961.69;;;18.08;75.25
36630;BME280;36256;42.154;23.002;2022-12-16T12:36:17;96978.72;;;18.08;74.84
36630;BME280;36256;42.154;23.002;2022-12-16T12:53:53;96976.06;;;17.77;78.15
36630;BME280;36256;42.154;23.002;2022-12-16T12:56:51;96970.09;;;17.75;77.75
36630;BME280;36256;42.154;23.002;2022-12-16T12:59:44;96979.66;;;17.72;78.40
36630;BME280;36256;42.154;23.002;2022-12-16T13:02:43;96968.00;;;17.64;78.31
36630;BME280;36256;42.154;23.002;2022-12-16T13:05:32;96968.00;;;17.64;78.82
36630;BME280;36256;42.154;23.002;2022-12-16T13:11:18;96969.44;;;17.49;78.60
36630;BME280;36256;42.154;23.002;2022-12-16T13:17:15;96967.63;;;17.46;79.03
36630;BME280;36256;42.154;23.002;2022-12-16T13:20:02;96959.84;;;17.41;79.75
36630;BME280;36256;42.154;23.002;2022-12-16T13:22:47;96966.84;;;17.45;79.90
36630;BME280;36256;42.154;23.002;2022-12-16T13:25:51;96954.00;;;17.50;79.18
36630;BME280;36256;42.154;23.002;2022-12-16T13:28:39;96967.63;;;17.46;79.19
36630;BME280;36256;42.154;23.002;2022-12-16T13:31:27;96965.75;;;17.32;79.90
36630;BME280;36256;42.154;23.002;2022-12-16T13:37:01;96967.88;;;17.42;80.13
36630;BME280;36256;42.154;23.002;2022-12-16T13:40:05;96991.59;;;17.45;79.48
36630;BME280;36256;42.154;23.002;2022-12-16T13:42:57;96973.47;;;17.31;80.01
36630;BME280;36256;42.154;23.002;2022-12-16T13:48:43;96986.00;;;17.13;81.79
36630;BME280;36256;42.154;23.002;2022-12-16T13:57:17;96982.91;;;16.80;83.34
36630;BME280;36256;42.154;23.002;2022-12-16T14:00:05;96993.19;;;16.78;83.39
36630;BME280;36256;42.154;23.002;2022-12-16T14:03:03;96991.59;;;16.71;84.16
36630;BME280;36256;42.154;23.002;2022-12-16T14:05:54;97020.09;;;16.62;85.13
36630;BME280;36256;42.154;23.002;2022-12-16T14:08:40;97016.88;;;16.49;85.88
36630;BME280;36256;42.154;23.002;2022-12-16T14:12:04;96990.72;;;16.34;86.95
36630;BME280;36256;42.154;23.002;2022-12-16T14:15:04;96997.09;;;16.29;87.59
36630;BME280;36256;42.154;23.002;2022-12-16T14:17:59;97003.22;;;16.22;88.68
36630;BME280;36256;42.154;23.002;2022-12-16T14:20:54;97009.06;;;16.18;88.92
36630;BME280;36256;42.154;23.002;2022-12-16T14:23:49;97008.53;;;16.14;88.97
36630;BME280;36256;42.154;23.002;2022-12-16T14:26:37;97012.03;;;16.29;87.52
36630;BME280;36256;42.154;23.002;2022-12-16T14:29:25;97003.09;;;16.11;88.92
